Time;durP1;ratioP1;P1;durP2;ratioP2;P2;SDS_P1;SDS_P2;PMS_P1;PMS_P2;Temp;Humidity;BMP_temperature;BMP_pressure;BME280_temperature;BME280_humidity;BME280_pressure;Samples;Min_cycle;Max_cycle;Signal;HPM_P1;HPM_P2
2023/09/26 00:01:49;;;;;;;8.47;4.77;;;16.30;13.90;;;;;;5098464;28;20473;-69
2023/09/26 00:04:15;;;;;;;6.90;5.20;;;16.30;14.80;;;;;;5090715;28;20409;-69
2023/09/26 00:06:40;;;;;;;8.35;5.20;;;16.40;15.90;;;;;;5101095;28;20434;-69
2023/09/26 00:09:06;;;;;;;8.47;5.67;;;16.40;15.20;;;;;;5084014;28;20400;-69
2023/09/26 00:11:34;;;;;;;8.13;5.78;;;16.30;15.10;;;;;;5096372;28;20924;-69
2023/09/26 00:13:59;;;;;;;8.10;5.37;;;16.30;14.90;;;;;;5110632;28;20453;-69
2023/09/26 00:16:25;;;;;;;6.15;5.20;;;16.30;15.30;;;;;;5109523;28;20396;-69
2023/09/26 00:18:51;;;;;;;7.82;5.32;;;16.30;15.90;;;;;;5110369;28;20918;-69
2023/09/26 00:21:17;;;;;;;7.60;5.40;;;16.20;16.70;;;;;;5096944;28;20406;-69
2023/09/26 00:23:42;;;;;;;7.55;5.35;;;16.20;17.60;;;;;;5109811;28;20812;-69
2023/09/26 00:26:08;;;;;;;8.77;5.60;;;16.20;18.00;;;;;;5107378;28;20495;-69
2023/09/26 00:28:34;;;;;;;6.85;5.80;;;16.20;18.40;;;;;;5109008;28;20449;-69
2023/09/26 00:31:04;;;;;;;7.83;5.73;;;16.20;18.80;;;;;;5108527;28;20798;-69
2023/09/26 00:33:32;;;;;;;7.15;5.65;;;16.20;18.00;;;;;;5090252;28;20394;-69
2023/09/26 00:36:06;;;;;;;8.45;5.68;;;16.20;17.70;;;;;;5093520;28;20491;-69
2023/09/26 00:38:32;;;;;;;7.25;5.60;;;16.10;17.80;;;;;;5100490;28;20406;-69
2023/09/26 00:40:57;;;;;;;8.43;5.57;;;16.10;17.60;;;;;;5105594;28;20423;-69
2023/09/26 00:43:23;;;;;;;8.67;5.37;;;16.10;18.20;;;;;;5098492;28;20398;-69
2023/09/26 00:45:54;;;;;;;8.15;5.97;;;16.10;18.60;;;;;;5102479;28;20947;-69
2023/09/26 00:48:23;;;;;;;11.23;6.15;;;16.10;19.90;;;;;;5089942;28;21123;-69
2023/09/26 00:50:49;;;;;;;9.02;6.20;;;16.10;19.40;;;;;;5107100;28;20420;-69
2023/09/26 00:53:15;;;;;;;7.30;5.50;;;16.10;20.20;;;;;;5109654;28;20400;-69
2023/09/26 00:55:43;;;;;;;8.90;5.68;;;16.10;18.50;;;;;;5102600;28;20489;-69
2023/09/26 00:58:11;;;;;;;8.15;5.88;;;16.10;18.00;;;;;;5101680;28;20404;-69
2023/09/26 01:00:38;;;;;;;7.30;5.57;;;16.10;17.00;;;;;;5096223;28;20440;-69
2023/09/26 01:03:04;;;;;;;8.13;5.55;;;16.10;16.50;;;;;;5108578;28;20515;-69
2023/09/26 01:05:30;;;;;;;8.20;5.80;;;16.10;15.40;;;;;;5103345;28;20411;-69
2023/09/26 01:07:56;;;;;;;9.40;5.87;;;16.00;14.40;;;;;;5101549;28;20455;-69
2023/09/26 01:10:22;;;;;;;8.45;5.80;;;16.10;15.10;;;;;;5088931;28;20859;-69
2023/09/26 01:12:49;;;;;;;8.80;5.47;;;16.00;16.00;;;;;;5083441;28;20902;-69
2023/09/26 01:15:30;;;;;;;7.20;5.72;;;16.00;15.80;;;;;;5108336;28;20751;-69
2023/09/26 01:17:56;;;;;;;8.43;5.50;;;16.00;17.30;;;;;;5108136;28;20409;-69
2023/09/26 01:20:22;;;;;;;6.43;5.70;;;16.00;16.20;;;;;;5102615;28;20409;-69
2023/09/26 01:22:49;;;;;;;9.63;6.20;;;16.00;16.00;;;;;;5071069;28;20464;-69
2023/09/26 01:25:16;;;;;;;9.30;6.10;;;16.00;16.40;;;;;;5108765;28;20475;-69
2023/09/26 01:27:42;;;;;;;7.73;5.97;;;16.00;17.10;;;;;;5104680;28;20400;-69
2023/09/26 01:30:09;;;;;;;8.02;5.70;;;16.00;16.50;;;;;;5107514;28;20393;-69
2023/09/26 01:32:34;;;;;;;8.57;6.20;;;16.00;15.20;;;;;;5105798;28;20432;-69
2023/09/26 01:35:00;;;;;;;8.50;5.82;;;16.00;14.90;;;;;;5081226;28;20461;-69
2023/09/26 01:37:26;;;;;;;7.07;5.50;;;16.00;14.70;;;;;;5098799;28;20400;-69
2023/09/26 01:39:51;;;;;;;9.57;6.00;;;16.00;14.40;;;;;;5095409;28;20404;-69
2023/09/26 01:42:17;;;;;;;7.40;5.47;;;15.90;14.00;;;;;;5094802;28;20398;-69
2023/09/26 01:44:42;;;;;;;8.17;5.93;;;15.90;14.70;;;;;;5099973;28;20753;-69
2023/09/26 01:47:21;;;;;;;8.25;5.80;;;15.90;14.50;;;;;;5100339;28;20409;-69
2023/09/26 01:49:47;;;;;;;8.20;6.00;;;15.80;13.00;;;;;;5106386;28;20434;-69
2023/09/26 01:52:12;;;;;;;8.85;6.40;;;15.80;12.70;;;;;;5093102;28;20440;-69
2023/09/26 01:54:38;;;;;;;7.17;5.67;;;15.70;12.00;;;;;;5078871;28;20906;-69
2023/09/26 01:57:06;;;;;;;9.60;6.00;;;15.60;12.00;;;;;;5104674;28;20543;-68
2023/09/26 01:59:33;;;;;;;9.13;5.90;;;15.60;12.40;;;;;;5097362;28;20437;-69
2023/09/26 02:02:02;;;;;;;7.50;5.82;;;15.60;12.80;;;;;;5091182;28;20477;-69
2023/09/26 02:04:28;;;;;;;7.28;5.63;;;15.60;13.10;;;;;;5106887;28;20631;-69
2023/09/26 02:06:53;;;;;;;8.98;6.10;;;15.60;13.10;;;;;;5095129;28;20981;-69
2023/09/26 02:09:19;;;;;;;8.00;5.87;;;15.60;14.00;;;;;;5108243;28;20396;-69
2023/09/26 02:11:45;;;;;;;7.57;5.82;;;15.50;13.10;;;;;;5090223;28;20559;-69
2023/09/26 02:14:10;;;;;;;7.53;5.80;;;15.50;11.80;;;;;;5088312;28;20394;-69
2023/09/26 02:16:36;;;;;;;9.15;6.10;;;15.50;11.20;;;;;;5073476;28;20479;-69
2023/09/26 02:19:02;;;;;;;8.73;6.23;;;15.50;12.10;;;;;;5108456;28;20777;-69
2023/09/26 02:21:27;;;;;;;8.00;5.80;;;15.40;12.70;;;;;;5094172;28;20405;-69
2023/09/26 02:23:53;;;;;;;9.50;6.20;;;15.40;12.70;;;;;;5107803;28;20408;-69
2023/09/26 02:26:19;;;;;;;8.70;6.45;;;15.40;12.70;;;;;;5093329;28;20886;-69
2023/09/26 02:28:44;;;;;;;7.53;5.93;;;15.40;13.30;;;;;;5107846;28;20412;-69
2023/09/26 02:31:16;;;;;;;7.53;6.22;;;15.40;13.50;;;;;;5090994;28;20433;-69
2023/09/26 02:33:42;;;;;;;9.05;6.18;;;15.40;13.70;;;;;;5095695;28;20429;-69
2023/09/26 02:36:08;;;;;;;8.55;6.07;;;15.40;13.90;;;;;;5096881;28;20393;-69
2023/09/26 02:38:33;;;;;;;8.05;6.38;;;15.30;14.30;;;;;;5073554;28;20475;-69
2023/09/26 02:40:59;;;;;;;8.37;6.97;;;15.30;14.70;;;;;;5090185;28;20408;-69
2023/09/26 02:43:25;;;;;;;8.80;6.37;;;15.40;15.10;;;;;;5097718;28;20492;-69
2023/09/26 02:45:51;;;;;;;9.37;6.90;;;15.30;16.00;;;;;;5099609;28;20404;-69
2023/09/26 02:48:16;;;;;;;9.00;6.28;;;15.30;16.00;;;;;;5090171;28;20930;-69
2023/09/26 02:50:42;;;;;;;9.93;7.00;;;15.30;16.10;;;;;;5094379;28;20432;-69
2023/09/26 02:53:08;;;;;;;10.63;7.10;;;15.30;16.30;;;;;;5090352;28;20394;-69
2023/09/26 02:55:38;;;;;;;9.20;6.72;;;15.30;15.10;;;;;;5088380;28;20398;-69
2023/09/26 02:58:04;;;;;;;9.15;6.80;;;15.20;14.60;;;;;;5088877;28;20407;-69
2023/09/26 03:00:30;;;;;;;8.43;6.53;;;15.20;14.00;;;;;;5088974;28;20498;-69
2023/09/26 03:02:55;;;;;;;15.43;7.72;;;15.20;13.40;;;;;;5087659;28;20412;-69
2023/09/26 03:05:21;;;;;;;9.57;7.37;;;15.20;11.40;;;;;;5090459;28;20934;-69
2023/09/26 03:07:46;;;;;;;8.20;6.80;;;15.10;11.30;;;;;;5087504;28;20394;-69
2023/09/26 03:10:14;;;;;;;7.97;6.47;;;15.10;10.80;;;;;;5100162;28;20406;-69
2023/09/26 03:12:46;;;;;;;9.38;7.05;;;15.20;10.60;;;;;;5106085;28;20473;-69
2023/09/26 03:15:12;;;;;;;9.15;7.10;;;15.10;9.10;;;;;;5104936;28;20917;-69
2023/09/26 03:17:38;;;;;;;10.00;6.70;;;15.10;8.60;;;;;;5098873;28;20396;-69
2023/09/26 03:20:04;;;;;;;9.53;6.87;;;15.10;8.80;;;;;;5100936;28;20919;-69
2023/09/26 03:22:30;;;;;;;9.18;7.00;;;15.10;8.90;;;;;;5109536;28;20408;-69
2023/09/26 03:24:55;;;;;;;9.15;7.00;;;15.00;8.30;;;;;;5097311;28;20404;-69
2023/09/26 03:27:21;;;;;;;9.27;6.87;;;14.90;8.20;;;;;;5099344;28;20449;-69
2023/09/26 03:29:50;;;;;;;10.27;7.15;;;14.90;8.00;;;;;;5097394;28;20421;-70
2023/09/26 03:32:15;;;;;;;8.90;6.78;;;14.80;7.00;;;;;;5110566;28;20416;-69
2023/09/26 03:34:41;;;;;;;8.63;6.80;;;14.80;7.40;;;;;;5097846;28;20398;-69
2023/09/26 03:37:07;;;;;;;11.07;7.10;;;14.70;6.60;;;;;;5085745;28;20400;-69
2023/09/26 03:39:33;;;;;;;9.90;7.60;;;14.60;6.30;;;;;;5105167;28;20407;-69
2023/09/26 03:41:58;;;;;;;10.07;7.10;;;14.60;7.30;;;;;;5102525;28;20394;-69
2023/09/26 03:44:24;;;;;;;9.77;7.40;;;14.50;7.80;;;;;;5100688;28;20882;-69
2023/09/26 03:46:49;;;;;;;10.80;7.53;;;14.40;9.10;;;;;;5107917;28;20433;-70
2023/09/26 03:49:15;;;;;;;10.33;8.07;;;14.40;10.00;;;;;;5103864;28;20450;-69
2023/09/26 03:51:40;;;;;;;9.15;7.60;;;14.40;10.50;;;;;;5104224;28;20939;-69
2023/09/26 03:54:06;;;;;;;10.63;7.60;;;14.30;10.80;;;;;;5091368;28;20394;-69
2023/09/26 03:56:32;;;;;;;9.60;7.60;;;14.30;11.60;;;;;;5106987;28;20396;-69
2023/09/26 03:58:57;;;;;;;10.35;7.97;;;14.20;12.20;;;;;;5093282;28;20414;-69
2023/09/26 04:01:23;;;;;;;12.33;8.10;;;14.20;12.50;;;;;;5092047;28;20440;-69
2023/09/26 04:03:48;;;;;;;10.70;8.38;;;14.10;13.50;;;;;;5097252;28;20400;-69
2023/09/26 04:06:17;;;;;;;9.43;8.17;;;14.10;13.60;;;;;;5096150;28;20489;-69
2023/09/26 04:08:43;;;;;;;11.20;8.45;;;14.10;13.80;;;;;;5090415;28;20409;-69
2023/09/26 04:11:14;;;;;;;9.95;8.25;;;14.00;14.70;;;;;;5091690;28;20426;-69
2023/09/26 04:13:40;;;;;;;10.07;8.05;;;14.00;15.20;;;;;;5091744;28;20406;-69
2023/09/26 04:16:05;;;;;;;11.40;8.23;;;14.00;15.60;;;;;;5091116;28;20401;-69
2023/09/26 04:18:31;;;;;;;9.60;8.10;;;14.00;15.10;;;;;;5090069;28;20771;-69
2023/09/26 04:21:04;;;;;;;10.13;8.57;;;13.90;14.10;;;;;;5102851;28;20412;-69
2023/09/26 04:23:30;;;;;;;11.48;8.82;;;13.90;14.80;;;;;;5096772;28;20435;-69
2023/09/26 04:25:56;;;;;;;10.23;8.88;;;13.90;14.70;;;;;;5094827;28;20424;-69
2023/09/26 04:28:22;;;;;;;10.65;8.57;;;13.80;14.90;;;;;;5107845;28;20453;-69
2023/09/26 04:30:47;;;;;;;11.00;8.67;;;13.80;14.80;;;;;;5105833;28;20451;-69
2023/09/26 04:33:13;;;;;;;12.65;8.45;;;13.80;16.00;;;;;;5107818;28;20921;-69
2023/09/26 04:35:39;;;;;;;11.00;8.47;;;13.70;15.80;;;;;;5106674;28;20397;-69
2023/09/26 04:38:05;;;;;;;11.20;8.65;;;13.70;17.70;;;;;;5090554;28;20485;-69
2023/09/26 04:40:30;;;;;;;11.80;8.20;;;13.70;18.30;;;;;;5100274;28;20405;-69
2023/09/26 04:43:03;;;;;;;11.47;9.20;;;13.70;18.30;;;;;;5101440;28;20425;-69
2023/09/26 04:45:32;;;;;;;11.60;8.55;;;13.60;18.20;;;;;;5094599;28;20397;-69
2023/09/26 04:47:59;;;;;;;12.25;9.48;;;13.60;18.90;;;;;;5090074;28;20967;-69
2023/09/26 04:50:26;;;;;;;11.02;8.82;;;13.60;19.60;;;;;;5091598;28;20500;-69
2023/09/26 04:52:52;;;;;;;11.82;9.05;;;13.50;20.40;;;;;;5101632;28;20464;-70
2023/09/26 04:55:18;;;;;;;11.90;9.17;;;13.60;21.00;;;;;;5108071;28;20813;-69
2023/09/26 04:57:43;;;;;;;12.40;8.35;;;13.50;21.30;;;;;;5098894;28;20810;-69
2023/09/26 05:00:10;;;;;;;10.53;8.57;;;13.50;21.70;;;;;;5090438;28;20449;-69
2023/09/26 05:02:35;;;;;;;11.30;8.80;;;13.50;21.70;;;;;;5090806;28;20394;-69
2023/09/26 05:05:03;;;;;;;11.68;8.88;;;13.50;22.00;;;;;;5102689;28;20509;-69
2023/09/26 05:07:29;;;;;;;11.00;9.20;;;13.50;23.00;;;;;;5089787;28;20428;-69
2023/09/26 05:09:56;;;;;;;12.88;9.13;;;13.50;23.60;;;;;;5091061;28;20405;-67
2023/09/26 05:12:22;;;;;;;11.23;9.10;;;13.50;23.50;;;;;;5090485;28;20469;-68
2023/09/26 05:14:48;;;;;;;12.10;9.27;;;13.40;23.80;;;;;;5090702;28;20437;-67
2023/09/26 05:17:14;;;;;;;12.02;9.02;;;13.40;24.10;;;;;;5090203;28;20393;-67
2023/09/26 05:19:39;;;;;;;12.23;9.60;;;13.50;23.70;;;;;;5092069;28;20396;-68
2023/09/26 05:22:05;;;;;;;12.90;8.87;;;13.40;23.40;;;;;;5109118;28;20419;-68
2023/09/26 05:24:30;;;;;;;11.77;9.87;;;13.40;23.60;;;;;;5106718;28;20437;-68
2023/09/26 05:26:56;;;;;;;11.75;9.10;;;13.40;24.90;;;;;;5098970;28;20806;-68
2023/09/26 05:29:22;;;;;;;10.00;8.97;;;13.40;25.00;;;;;;5104755;28;20408;-68
2023/09/26 05:31:47;;;;;;;11.95;9.75;;;13.40;25.10;;;;;;5108838;28;20977;-69
2023/09/26 05:34:13;;;;;;;12.20;9.57;;;13.40;25.30;;;;;;5107237;28;20397;-68
2023/09/26 05:36:38;;;;;;;11.55;9.52;;;13.40;26.00;;;;;;5100114;28;20489;-68
2023/09/26 05:39:04;;;;;;;12.17;9.83;;;13.40;26.30;;;;;;5097447;28;20408;-68
2023/09/26 05:41:30;;;;;;;14.30;9.52;;;13.40;27.10;;;;;;5102772;28;20408;-68
2023/09/26 05:43:55;;;;;;;16.07;9.73;;;13.40;27.20;;;;;;5089838;28;20410;-68
2023/09/26 05:46:21;;;;;;;12.00;9.73;;;13.40;27.50;;;;;;5091575;28;20422;-68
2023/09/26 05:48:47;;;;;;;18.67;9.90;;;13.40;27.60;;;;;;5091154;28;20918;-69
2023/09/26 05:51:12;;;;;;;11.98;9.65;;;13.50;28.60;;;;;;5090837;28;20434;-69
2023/09/26 05:53:38;;;;;;;10.83;9.50;;;13.40;29.20;;;;;;5090776;28;20411;-68
2023/09/26 05:56:04;;;;;;;14.52;9.57;;;13.50;29.60;;;;;;5099755;28;20396;-68
2023/09/26 05:58:29;;;;;;;14.23;9.83;;;13.50;29.80;;;;;;5092961;28;20531;-68
2023/09/26 06:00:56;;;;;;;15.68;9.75;;;13.50;30.00;;;;;;5091091;28;20919;-68
2023/09/26 06:03:22;;;;;;;13.43;9.73;;;13.50;30.00;;;;;;5099028;28;20477;-69
2023/09/26 06:05:49;;;;;;;14.45;9.27;;;13.50;28.20;;;;;;5090749;28;20406;-69
2023/09/26 06:08:15;;;;;;;15.00;9.10;;;13.50;27.10;;;;;;5093421;28;20916;-69
2023/09/26 06:10:41;;;;;;;12.93;9.50;;;13.60;25.80;;;;;;5090466;28;20434;-68
2023/09/26 06:13:06;;;;;;;13.97;8.90;;;13.60;24.90;;;;;;5090979;28;20432;-68
2023/09/26 06:15:32;;;;;;;12.82;9.02;;;13.60;24.40;;;;;;5098441;28;20577;-68
2023/09/26 06:18:01;;;;;;;16.07;8.70;;;13.60;24.50;;;;;;5092394;28;20471;-69
2023/09/26 06:20:30;;;;;;;14.80;8.93;;;13.60;23.30;;;;;;5097845;28;20516;-69
2023/09/26 06:22:56;;;;;;;14.57;9.00;;;13.70;22.60;;;;;;5085442;28;20464;-68
2023/09/26 06:25:22;;;;;;;12.38;8.40;;;13.70;21.70;;;;;;5088383;28;20954;-69
2023/09/26 06:27:49;;;;;;;15.45;8.88;;;13.80;20.70;;;;;;5089418;28;20613;-69
2023/09/26 06:30:15;;;;;;;13.90;8.63;;;13.70;19.70;;;;;;5098405;28;20408;-69
2023/09/26 06:32:41;;;;;;;11.93;8.65;;;13.80;18.70;;;;;;5090504;28;20422;-68
2023/09/26 06:35:07;;;;;;;12.77;8.52;;;13.80;18.70;;;;;;5098330;28;20482;-69
2023/09/26 06:37:33;;;;;;;12.68;8.43;;;13.80;18.50;;;;;;5090760;28;20953;-68
2023/09/26 06:40:04;;;;;;;12.00;8.60;;;13.90;17.50;;;;;;5089082;28;20550;-68
2023/09/26 06:42:32;;;;;;;13.40;8.90;;;13.90;17.40;;;;;;5071884;28;20410;-69
2023/09/26 06:44:58;;;;;;;11.90;8.55;;;14.00;17.20;;;;;;5098589;28;20500;-69
2023/09/26 06:47:27;;;;;;;11.85;9.38;;;14.00;17.10;;;;;;5100482;28;20441;-69
2023/09/26 06:49:53;;;;;;;11.20;8.45;;;14.10;16.80;;;;;;5090449;28;20476;-69
2023/09/26 06:52:20;;;;;;;12.02;9.27;;;14.20;16.10;;;;;;5090211;28;20848;-69
2023/09/26 06:54:45;;;;;;;12.07;8.50;;;14.30;14.90;;;;;;5089591;28;20527;-69
2023/09/26 06:57:15;;;;;;;10.95;9.30;;;14.30;13.10;;;;;;5096841;28;20515;-69
2023/09/26 06:59:41;;;;;;;11.77;9.30;;;14.40;11.40;;;;;;5096645;28;20414;-69
2023/09/26 07:02:08;;;;;;;14.05;9.10;;;14.50;9.90;;;;;;5089076;28;20779;-69
2023/09/26 07:04:34;;;;;;;12.77;9.35;;;14.50;10.10;;;;;;5089070;28;20420;-68
2023/09/26 07:07:00;;;;;;;10.70;9.00;;;14.60;10.40;;;;;;5081135;28;20485;-69
2023/09/26 07:09:26;;;;;;;10.67;8.40;;;14.60;11.40;;;;;;5090231;28;20556;-69
2023/09/26 07:11:52;;;;;;;11.70;9.00;;;14.80;10.50;;;;;;5089446;28;20433;-69
2023/09/26 07:14:18;;;;;;;10.43;8.47;;;14.80;9.50;;;;;;5087799;28;20398;-68
2023/09/26 07:16:46;;;;;;;10.75;8.70;;;14.90;8.90;;;;;;5086987;28;20884;-69
2023/09/26 07:19:12;;;;;;;12.27;8.98;;;15.00;8.10;;;;;;5069591;28;20442;-69
2023/09/26 07:21:38;;;;;;;11.98;8.63;;;15.10;7.10;;;;;;5087466;28;20443;-69
2023/09/26 07:24:04;;;;;;;12.70;8.97;;;15.20;7.80;;;;;;5087873;28;20837;-69
2023/09/26 07:26:32;;;;;;;12.32;8.73;;;15.40;6.70;;;;;;5087882;28;20404;-69
2023/09/26 07:28:57;;;;;;;12.30;8.82;;;15.50;7.20;;;;;;5087808;28;20493;-69
2023/09/26 07:31:23;;;;;;;10.10;8.30;;;15.60;6.50;;;;;;5087475;28;20984;-69
2023/09/26 07:33:50;;;;;;;10.60;8.70;;;15.70;2.80;;;;;;5087783;28;20399;-68
2023/09/26 07:36:15;;;;;;;12.52;8.65;;;15.80;1.00;;;;;;5088486;28;20406;-68
2023/09/26 07:38:41;;;;;;;13.13;9.03;;;15.90;1.00;;;;;;5087129;28;20470;-69
2023/09/26 07:41:06;;;;;;;11.20;8.82;;;15.90;1.00;;;;;;5082012;28;20406;-69
2023/09/26 07:43:33;;;;;;;12.53;8.43;;;16.00;1.00;;;;;;5097757;28;20388;-69
2023/09/26 07:46:06;;;;;;;13.82;9.32;;;16.00;1.00;;;;;;5089808;28;20409;-69
2023/09/26 07:48:34;;;;;;;10.70;9.50;;;16.10;1.00;;;;;;5092130;28;20404;-69
2023/09/26 07:51:00;;;;;;;10.90;8.93;;;16.10;1.00;;;;;;5096778;28;20473;-70
2023/09/26 07:53:25;;;;;;;10.63;9.02;;;16.10;1.00;;;;;;5105976;28;20400;-69
2023/09/26 07:55:51;;;;;;;10.87;9.30;;;16.20;1.00;;;;;;5097082;28;20398;-69
2023/09/26 07:58:17;;;;;;;11.13;9.40;;;16.20;1.00;;;;;;5095107;28;20895;-69
2023/09/26 08:00:43;;;;;;;11.70;9.43;;;16.20;1.00;;;;;;5090538;28;20398;-69
2023/09/26 08:03:09;;;;;;;10.98;8.73;;;16.30;1.00;;;;;;5092512;28;20473;-69
2023/09/26 08:05:35;;;;;;;13.02;9.10;;;16.40;1.00;;;;;;5092524;28;20585;-69
2023/09/26 08:08:04;;;;;;;12.13;8.93;;;16.40;1.00;;;;;;5092599;28;20907;-69
2023/09/26 08:10:31;;;;;;;14.23;9.20;;;16.40;1.00;;;;;;5098485;28;20420;-69
2023/09/26 08:12:57;;;;;;;10.73;8.83;;;16.50;1.00;;;;;;5075579;28;20485;-69
2023/09/26 08:15:23;;;;;;;10.70;9.60;;;16.60;1.00;;;;;;5098578;28;20475;-69
2023/09/26 08:17:49;;;;;;;11.77;9.20;;;16.60;1.00;;;;;;5094394;28;20455;-69
2023/09/26 08:20:16;;;;;;;12.17;9.50;;;16.70;1.00;;;;;;5098731;28;20400;-69
2023/09/26 08:22:41;;;;;;;12.00;9.25;;;16.80;1.00;;;;;;5094445;28;20445;-69
2023/09/26 08:25:08;;;;;;;13.95;9.43;;;16.90;1.00;;;;;;5090517;28;20523;-69
2023/09/26 08:27:33;;;;;;;13.55;10.07;;;17.00;1.00;;;;;;5090724;28;20956;-69
2023/09/26 08:29:59;;;;;;;11.88;9.73;;;17.10;1.00;;;;;;5091803;28;20402;-69
2023/09/26 08:32:26;;;;;;;13.87;9.43;;;17.20;1.00;;;;;;5103054;28;20755;-69
2023/09/26 08:34:51;;;;;;;13.00;9.18;;;17.30;1.00;;;;;;5098303;28;20905;-69
2023/09/26 08:37:17;;;;;;;12.23;8.50;;;17.40;1.00;;;;;;5094822;28;20398;-69
2023/09/26 08:39:47;;;;;;;9.75;8.20;;;17.40;1.00;;;;;;5089993;28;20459;-69
2023/09/26 08:42:27;;;;;;;10.23;8.50;;;17.50;1.00;;;;;;5100908;28;20776;-69
2023/09/26 08:44:57;;;;;;;11.43;8.07;;;17.60;1.00;;;;;;5090609;28;20394;-69
2023/09/26 08:47:27;;;;;;;10.18;8.50;;;17.60;1.00;;;;;;5092859;28;20403;-69
2023/09/26 08:49:56;;;;;;;9.60;7.93;;;17.70;1.00;;;;;;5091468;28;20974;-69
2023/09/26 08:52:23;;;;;;;9.77;8.00;;;17.70;1.00;;;;;;5095062;28;20561;-69
2023/09/26 08:54:49;;;;;;;10.95;8.40;;;17.80;1.00;;;;;;5095906;28;20762;-69
2023/09/26 08:57:17;;;;;;;10.60;8.00;;;17.90;1.00;;;;;;5101659;28;20406;-69
2023/09/26 08:59:46;;;;;;;12.63;7.80;;;17.90;1.00;;;;;;5091333;28;20410;-69
2023/09/26 09:02:12;;;;;;;11.77;7.80;;;17.90;1.00;;;;;;5091369;28;20934;-69
2023/09/26 09:04:42;;;;;;;10.48;7.43;;;18.00;1.00;;;;;;5091300;28;20436;-69
2023/09/26 09:07:08;;;;;;;11.27;7.50;;;18.10;1.00;;;;;;5088876;28;20408;-69
2023/09/26 09:09:34;;;;;;;10.98;7.40;;;18.30;1.00;;;;;;5092672;28;20397;-69
2023/09/26 09:12:00;;;;;;;9.73;7.30;;;18.50;1.00;;;;;;5091480;28;20422;-69
2023/09/26 09:14:34;;;;;;;8.10;7.03;;;18.70;1.00;;;;;;5093209;28;20400;-69
2023/09/26 09:17:00;;;;;;;10.45;7.10;;;18.80;1.00;;;;;;5089423;28;20509;-69
2023/09/26 09:19:45;;;;;;;10.55;7.72;;;18.80;1.00;;;;;;5088938;28;20402;-69
2023/09/26 09:22:18;;;;;;;11.25;7.32;;;18.80;1.00;;;;;;5099396;28;20483;-69
2023/09/26 09:24:54;;;;;;;11.20;7.57;;;18.80;1.00;;;;;;5089186;28;20449;-69
2023/09/26 09:27:43;;;;;;;10.23;7.25;;;18.90;1.00;;;;;;5090574;28;20409;-69
2023/09/26 09:30:11;;;;;;;15.20;7.63;;;19.00;1.00;;;;;;5088789;28;20757;-69
2023/09/26 09:32:40;;;;;;;10.52;7.30;;;19.10;1.00;;;;;;5091163;28;21065;-69
2023/09/26 09:35:08;;;;;;;14.38;7.32;;;19.30;1.00;;;;;;5089107;28;20402;-69
2023/09/26 09:37:33;;;;;;;7.47;5.82;;;19.60;1.00;;;;;;5090536;28;20402;-69
2023/09/26 09:39:59;;;;;;;11.27;6.30;;;20.00;1.00;;;;;;5089209;28;20441;-69
2023/09/26 09:42:25;;;;;;;9.33;6.33;;;20.50;1.00;;;;;;5098695;28;20409;-69
2023/09/26 09:44:50;;;;;;;10.90;7.00;;;21.00;99.90;;;;;;5101009;28;20396;-70
2023/09/26 09:47:28;;;;;;;8.63;6.63;;;21.30;99.90;;;;;;5094754;28;20909;-69
2023/09/26 09:49:57;;;;;;;8.43;5.97;;;21.20;99.90;;;;;;5097848;28;20977;-69
2023/09/26 09:52:22;;;;;;;8.38;5.30;;;21.20;90.00;;;;;;5102598;28;20429;-69
2023/09/26 09:54:51;;;;;;;6.85;5.30;;;21.40;1.00;;;;;;5089546;28;21184;-69
2023/09/26 09:57:19;;;;;;;6.75;4.93;;;21.30;1.00;;;;;;5091554;28;20398;-69
2023/09/26 09:59:45;;;;;;;7.80;5.63;;;21.10;99.90;;;;;;5090538;28;20406;-69
2023/09/26 10:02:17;;;;;;;5.82;4.70;;;21.20;1.00;;;;;;5095043;28;20407;-70
2023/09/26 10:04:46;;;;;;;6.72;4.75;;;22.00;1.00;;;;;;5094463;28;20402;-70
2023/09/26 10:07:12;;;;;;;7.80;4.50;;;23.00;99.90;;;;;;5070308;28;20832;-70
2023/09/26 10:09:39;;;;;;;6.43;4.18;;;23.70;1.00;;;;;;5090201;28;20430;-69
2023/09/26 10:12:06;;;;;;;7.03;4.40;;;24.10;99.90;;;;;;5096160;28;20519;-70
2023/09/26 10:14:32;;;;;;;6.20;4.30;;;24.60;99.90;;;;;;5092675;28;20399;-70
2023/09/26 10:16:59;;;;;;;6.38;4.25;;;24.40;99.90;;;;;;5095168;28;20405;-70
2023/09/26 10:19:28;;;;;;;6.10;4.50;;;24.00;96.30;;;;;;5091767;28;20402;-69
2023/09/26 10:22:13;;;;;;;7.17;4.60;;;23.60;1.00;;;;;;5088135;28;20425;-69
2023/09/26 10:25:05;;;;;;;6.13;4.18;;;23.30;1.00;;;;;;5089171;28;20422;-70
2023/09/26 10:27:31;;;;;;;5.70;4.47;;;23.10;7.40;;;;;;5085995;28;20454;-70
2023/09/26 10:29:57;;;;;;;6.55;4.40;;;23.10;99.90;;;;;;5087772;28;20952;-69
2023/09/26 10:32:38;;;;;;;7.33;4.03;;;22.90;1.00;;;;;;5089255;28;20946;-69
2023/09/26 10:35:16;;;;;;;5.38;3.85;;;22.80;1.00;;;;;;5099370;28;20822;-70
2023/09/26 10:37:49;;;;;;;6.97;4.50;;;22.80;1.00;;;;;;5087873;28;20410;-69
2023/09/26 10:40:18;;;;;;;6.32;5.15;;;22.90;1.00;;;;;;5071385;28;20474;-69
2023/09/26 10:42:47;;;;;;;7.00;4.35;;;22.80;1.00;;;;;;5088654;28;20437;-69
2023/09/26 10:45:13;;;;;;;6.20;4.43;;;22.60;1.00;;;;;;5103286;28;20963;-70
2023/09/26 10:47:40;;;;;;;6.53;4.03;;;22.50;1.00;;;;;;5090172;28;20835;-69
2023/09/26 10:50:12;;;;;;;5.18;3.78;;;22.40;1.00;;;;;;5090537;28;20550;-70
2023/09/26 10:52:41;;;;;;;6.20;4.13;;;22.60;34.30;;;;;;5087834;28;20401;-70
2023/09/26 10:55:10;;;;;;;7.80;4.35;;;22.90;1.00;;;;;;5104135;28;20409;-70
2023/09/26 10:57:37;;;;;;;9.05;4.70;;;23.00;1.00;;;;;;5099382;28;20397;-69
2023/09/26 11:00:11;;;;;;;5.93;4.35;;;22.80;99.90;;;;;;5091096;28;20413;-70
2023/09/26 11:02:37;;;;;;;6.25;3.97;;;22.60;99.90;;;;;;5099557;28;20408;-69
2023/09/26 11:05:12;;;;;;;8.82;4.07;;;22.40;1.00;;;;;;5091172;28;20423;-70
2023/09/26 11:07:38;;;;;;;7.82;4.78;;;22.40;1.00;;;;;;5087743;28;20410;-69
2023/09/26 11:10:05;;;;;;;6.22;4.13;;;22.40;1.00;;;;;;5071236;28;20478;-69
2023/09/26 11:12:31;;;;;;;8.15;4.45;;;22.40;1.00;;;;;;5100278;28;20439;-69
2023/09/26 11:14:59;;;;;;;5.47;3.55;;;22.50;99.90;;;;;;5089696;28;20409;-69
2023/09/26 11:17:27;;;;;;;5.77;4.10;;;22.40;99.90;;;;;;5088905;28;20406;-69
2023/09/26 11:19:57;;;;;;;7.57;4.20;;;22.50;99.90;;;;;;5091574;28;20416;-69
2023/09/26 11:22:23;;;;;;;6.63;3.80;;;22.40;99.90;;;;;;5106865;28;20416;-69
2023/09/26 11:24:49;;;;;;;7.55;4.57;;;22.30;99.90;;;;;;5088225;28;20426;-69
2023/09/26 11:27:15;;;;;;;5.88;4.03;;;22.30;1.00;;;;;;5087348;28;20410;-69
2023/09/26 11:29:41;;;;;;;6.43;3.97;;;22.30;99.90;;;;;;5106080;28;20472;-69
2023/09/26 11:32:06;;;;;;;6.30;4.20;;;22.20;99.90;;;;;;5111200;28;20527;-69
2023/09/26 11:34:35;;;;;;;7.28;3.80;;;22.20;99.90;;;;;;5109289;28;20435;-69
2023/09/26 11:37:01;;;;;;;6.65;4.30;;;22.20;99.90;;;;;;5110703;28;20425;-69
2023/09/26 11:39:27;;;;;;;7.40;5.45;;;22.20;1.00;;;;;;5092048;28;20397;-69
2023/09/26 11:42:07;;;;;;;7.35;4.80;;;22.30;1.00;;;;;;5090935;28;20405;-69
2023/09/26 11:44:33;;;;;;;6.35;4.55;;;22.30;1.00;;;;;;5101558;28;20396;-69
2023/09/26 11:46:59;;;;;;;6.88;4.50;;;22.20;1.00;;;;;;5097080;28;20400;-69
2023/09/26 11:49:25;;;;;;;6.38;4.18;;;22.20;1.00;;;;;;5111192;28;20396;-69
2023/09/26 11:51:52;;;;;;;6.43;3.83;;;22.10;99.90;;;;;;5093804;28;20426;-69
2023/09/26 11:54:18;;;;;;;6.53;3.70;;;22.00;99.90;;;;;;5101738;28;20388;-69
2023/09/26 11:56:45;;;;;;;6.53;3.63;;;22.00;99.90;;;;;;5097019;28;20481;-69
2023/09/26 11:59:11;;;;;;;6.90;3.60;;;22.00;1.00;;;;;;5102794;28;20472;-69
2023/09/26 12:01:41;;;;;;;6.45;4.03;;;22.10;1.00;;;;;;5087209;28;20541;-69
2023/09/26 12:04:09;;;;;;;6.63;3.70;;;22.20;99.90;;;;;;5102319;28;20573;-69
2023/09/26 12:06:34;;;;;;;7.20;4.05;;;22.30;99.90;;;;;;5093588;28;20831;-69
2023/09/26 12:09:00;;;;;;;7.63;4.13;;;22.30;99.90;;;;;;5090682;28;20428;-69
2023/09/26 12:11:26;;;;;;;6.90;3.90;;;22.30;99.90;;;;;;5075364;28;20428;-69
2023/09/26 12:13:52;;;;;;;5.25;3.80;;;22.30;99.90;;;;;;5093853;28;20398;-69
2023/09/26 12:16:17;;;;;;;7.40;4.17;;;22.30;99.90;;;;;;5095351;28;20612;-69
2023/09/26 12:18:43;;;;;;;6.57;3.30;;;22.20;99.90;;;;;;5101648;28;20443;-69
2023/09/26 12:21:09;;;;;;;4.95;3.10;;;22.10;99.90;;;;;;5095086;28;20553;-69
2023/09/26 12:23:35;;;;;;;6.68;3.40;;;22.10;99.90;;;;;;5110351;28;20412;-69
2023/09/26 12:26:01;;;;;;;5.00;3.13;;;22.40;99.90;;;;;;5092909;28;20474;-69
2023/09/26 12:28:27;;;;;;;7.43;3.70;;;22.70;99.90;;;;;;5100593;28;21019;-70
2023/09/26 12:30:53;;;;;;;6.63;3.30;;;23.00;99.90;;;;;;5093635;28;20432;-69
2023/09/26 12:33:18;;;;;;;5.05;3.22;;;23.30;99.90;;;;;;5091916;28;20402;-69
2023/09/26 12:35:44;;;;;;;5.13;3.10;;;23.40;99.90;;;;;;5092529;28;20750;-69
2023/09/26 12:38:10;;;;;;;6.47;3.03;;;23.40;99.90;;;;;;5090609;28;20479;-69
2023/09/26 12:40:36;;;;;;;5.67;3.07;;;23.60;99.90;;;;;;5094577;28;20464;-69
2023/09/26 12:43:02;;;;;;;6.20;3.47;;;23.90;99.90;;;;;;5083025;28;20404;-69
2023/09/26 12:45:29;;;;;;;5.60;3.20;;;24.40;77.50;;;;;;5104808;28;20477;-69